sensor_id;sensor_type;location;lat;lon;timestamp;pressure;altitude;pressure_sealevel;temperature;humidity
21102;BME280;10709;49.006;12.100;2023-04-30T00:02:24;48795.00;;;-146.00;77.10
21102;BME280;10709;49.006;12.100;2023-04-30T00:04:51;48826.34;;;-146.00;77.29
21102;BME280;10709;49.006;12.100;2023-04-30T00:07:18;48844.00;;;-146.00;78.01
21102;BME280;10709;49.006;12.100;2023-04-30T00:09:45;48824.41;;;-146.00;77.54
21102;BME280;10709;49.006;12.100;2023-04-30T00:12:12;48832.22;;;-146.00;76.92
21102;BME280;10709;49.006;12.100;2023-04-30T00:14:43;48830.28;;;-146.00;77.06
21102;BME280;10709;49.006;12.100;2023-04-30T00:17:10;48836.16;;;-146.00;76.32
21102;BME280;10709;49.006;12.100;2023-04-30T00:19:39;48812.63;;;-146.00;77.12
21102;BME280;10709;49.006;12.100;2023-04-30T00:22:05;48842.03;;;-146.00;76.95
21102;BME280;10709;49.006;12.100;2023-04-30T00:24:32;48832.22;;;-146.00;76.75
21102;BME280;10709;49.006;12.100;2023-04-30T00:27:00;48820.47;;;-146.00;76.70
21102;BME280;10709;49.006;12.100;2023-04-30T00:29:27;48812.63;;;-146.00;77.25
21102;BME280;10709;49.006;12.100;2023-04-30T00:31:53;48812.63;;;-146.00;76.50
21102;BME280;10709;49.006;12.100;2023-04-30T00:34:20;48844.00;;;-146.00;75.93
21102;BME280;10709;49.006;12.100;2023-04-30T00:36:47;48814.59;;;-146.00;76.29
21102;BME280;10709;49.006;12.100;2023-04-30T00:39:13;48812.63;;;-146.00;75.72
21102;BME280;10709;49.006;12.100;2023-04-30T00:41:40;48832.22;;;-146.00;75.43
21102;BME280;10709;49.006;12.100;2023-04-30T00:44:07;48824.41;;;-146.00;76.23
21102;BME280;10709;49.006;12.100;2023-04-30T00:46:34;48834.19;;;-146.00;76.83
21102;BME280;10709;49.006;12.100;2023-04-30T00:49:01;48832.22;;;-146.00;77.86
21102;BME280;10709;49.006;12.100;2023-04-30T00:51:34;48853.78;;;-146.00;78.21
21102;BME280;10709;49.006;12.100;2023-04-30T00:54:01;48832.22;;;-146.00;77.74
21102;BME280;10709;49.006;12.100;2023-04-30T00:56:29;48820.47;;;-146.00;76.94
21102;BME280;10709;49.006;12.100;2023-04-30T00:58:57;48820.47;;;-146.00;76.49
21102;BME280;10709;49.006;12.100;2023-04-30T01:01:25;48855.75;;;-146.00;76.78
21102;BME280;10709;49.006;12.100;2023-04-30T01:03:51;48824.41;;;-146.00;77.05
21102;BME280;10709;49.006;12.100;2023-04-30T01:06:18;48822.44;;;-146.00;77.73
21102;BME280;10709;49.006;12.100;2023-04-30T01:08:45;48820.47;;;-146.00;77.11
21102;BME280;10709;49.006;12.100;2023-04-30T01:11:45;48836.16;;;-146.00;76.83
21102;BME280;10709;49.006;12.100;2023-04-30T01:14:26;48824.41;;;-146.00;77.04
21102;BME280;10709;49.006;12.100;2023-04-30T01:17:04;48808.72;;;-146.00;77.55
21102;BME280;10709;49.006;12.100;2023-04-30T01:19:41;48844.00;;;-146.00;77.27
21102;BME280;10709;49.006;12.100;2023-04-30T01:22:35;48816.56;;;-146.00;76.94
21102;BME280;10709;49.006;12.100;2023-04-30T01:25:13;48824.41;;;-146.00;76.59
21102;BME280;10709;49.006;12.100;2023-04-30T01:28:03;48836.16;;;-146.00;76.30
21102;BME280;10709;49.006;12.100;2023-04-30T01:30:32;48844.00;;;-146.00;76.46
21102;BME280;10709;49.006;12.100;2023-04-30T01:32:59;48826.34;;;-146.00;75.90
21102;BME280;10709;49.006;12.100;2023-04-30T01:41:06;48832.22;;;-146.00;75.95
21102;BME280;10709;49.006;12.100;2023-04-30T01:43:48;48802.84;;;-146.00;74.78
21102;BME280;10709;49.006;12.100;2023-04-30T01:46:28;48804.81;;;-146.00;75.33
21102;BME280;10709;49.006;12.100;2023-04-30T01:49:07;48832.22;;;-146.00;76.18
21102;BME280;10709;49.006;12.100;2023-04-30T01:51:43;48844.00;;;-146.00;76.29
21102;BME280;10709;49.006;12.100;2023-04-30T01:54:37;48836.16;;;-146.00;75.85
21102;BME280;10709;49.006;12.100;2023-04-30T01:57:12;48820.47;;;-146.00;75.99
21102;BME280;10709;49.006;12.100;2023-04-30T01:59:41;48826.34;;;-146.00;76.35
21102;BME280;10709;49.006;12.100;2023-04-30T02:02:08;48828.31;;;-146.00;76.85
21102;BME280;10709;49.006;12.100;2023-04-30T02:04:35;48851.81;;;-146.00;76.54
21102;BME280;10709;49.006;12.100;2023-04-30T02:07:03;48830.28;;;-146.00;76.37
21102;BME280;10709;49.006;12.100;2023-04-30T02:09:30;48824.41;;;-146.00;76.01
21102;BME280;10709;49.006;12.100;2023-04-30T02:11:59;48804.81;;;-146.00;76.07
21102;BME280;10709;49.006;12.100;2023-04-30T02:14:27;48820.47;;;-146.00;75.66
21102;BME280;10709;49.006;12.100;2023-04-30T02:16:53;48830.28;;;-146.00;76.60
21102;BME280;10709;49.006;12.100;2023-04-30T02:19:20;48826.34;;;-146.00;76.88
21102;BME280;10709;49.006;12.100;2023-04-30T02:21:47;48826.34;;;-146.00;76.67
21102;BME280;10709;49.006;12.100;2023-04-30T02:24:14;48824.41;;;-146.00;77.44
21102;BME280;10709;49.006;12.100;2023-04-30T02:26:41;48820.47;;;-146.00;78.10
21102;BME280;10709;49.006;12.100;2023-04-30T02:29:08;48824.41;;;-146.00;78.60
21102;BME280;10709;49.006;12.100;2023-04-30T02:31:35;48838.09;;;-146.00;79.93
21102;BME280;10709;49.006;12.100;2023-04-30T02:34:01;48824.41;;;-146.00;80.31
21102;BME280;10709;49.006;12.100;2023-04-30T02:36:28;48867.50;;;-146.00;80.50
21102;BME280;10709;49.006;12.100;2023-04-30T02:38:58;48836.16;;;-146.00;80.53
21102;BME280;10709;49.006;12.100;2023-04-30T02:41:25;48867.50;;;-146.00;79.69
21102;BME280;10709;49.006;12.100;2023-04-30T02:43:52;48891.00;;;-146.00;79.01
21102;BME280;10709;49.006;12.100;2023-04-30T02:46:18;48820.47;;;-146.00;79.45
21102;BME280;10709;49.006;12.100;2023-04-30T02:48:45;48853.78;;;-146.00;79.37
21102;BME280;10709;49.006;12.100;2023-04-30T02:51:12;48828.31;;;-146.00;79.67
21102;BME280;10709;49.006;12.100;2023-04-30T02:53:38;48840.06;;;-146.00;78.91
21102;BME280;10709;49.006;12.100;2023-04-30T02:56:05;48869.44;;;-146.00;77.99
21102;BME280;10709;49.006;12.100;2023-04-30T02:58:32;48793.06;;;-146.00;78.29
21102;BME280;10709;49.006;12.100;2023-04-30T03:00:59;48855.75;;;-146.00;78.31
21102;BME280;10709;49.006;12.100;2023-04-30T03:03:25;48859.66;;;-146.00;77.92
21102;BME280;10709;49.006;12.100;2023-04-30T03:05:54;48828.31;;;-146.00;78.18
21102;BME280;10709;49.006;12.100;2023-04-30T03:08:22;48832.22;;;-146.00;78.00
21102;BME280;10709;49.006;12.100;2023-04-30T03:10:48;48820.47;;;-146.00;77.70
21102;BME280;10709;49.006;12.100;2023-04-30T03:13:15;48816.56;;;-146.00;77.92
21102;BME280;10709;49.006;12.100;2023-04-30T03:15:42;48820.47;;;-146.00;77.03
21102;BME280;10709;49.006;12.100;2023-04-30T03:18:09;48820.47;;;-146.00;77.66
21102;BME280;10709;49.006;12.100;2023-04-30T03:20:37;48830.28;;;-146.00;77.29
21102;BME280;10709;49.006;12.100;2023-04-30T03:23:03;48836.16;;;-146.00;77.68
21102;BME280;10709;49.006;12.100;2023-04-30T03:25:30;48808.72;;;-146.00;77.73
21102;BME280;10709;49.006;12.100;2023-04-30T03:27:57;48844.00;;;-146.00;77.13
21102;BME280;10709;49.006;12.100;2023-04-30T03:30:23;48836.16;;;-146.00;77.26
21102;BME280;10709;49.006;12.100;2023-04-30T03:32:51;48826.34;;;-146.00;77.45
21102;BME280;10709;49.006;12.100;2023-04-30T03:35:18;48838.09;;;-146.00;78.70
21102;BME280;10709;49.006;12.100;2023-04-30T03:37:45;48800.88;;;-146.00;79.30
21102;BME280;10709;49.006;12.100;2023-04-30T03:40:11;48836.16;;;-146.00;79.67
21102;BME280;10709;49.006;12.100;2023-04-30T03:42:38;48857.69;;;-146.00;80.84
21102;BME280;10709;49.006;12.100;2023-04-30T03:45:05;48879.25;;;-146.00;80.93
21102;BME280;10709;49.006;12.100;2023-04-30T03:47:35;48871.41;;;-146.00;81.59
21102;BME280;10709;49.006;12.100;2023-04-30T03:50:02;48847.91;;;-146.00;81.63
21102;BME280;10709;49.006;12.100;2023-04-30T03:52:29;48871.41;;;-146.00;81.29
21102;BME280;10709;49.006;12.100;2023-04-30T03:54:56;48877.28;;;-146.00;81.25
21102;BME280;10709;49.006;12.100;2023-04-30T03:57:23;48883.16;;;-146.00;80.91
21102;BME280;10709;49.006;12.100;2023-04-30T03:59:50;48869.44;;;-146.00;80.02
21102;BME280;10709;49.006;12.100;2023-04-30T04:02:19;48857.69;;;-146.00;80.14
21102;BME280;10709;49.006;12.100;2023-04-30T04:04:47;48845.94;;;-146.00;79.36
21102;BME280;10709;49.006;12.100;2023-04-30T04:07:13;48834.19;;;-146.00;79.44
21102;BME280;10709;49.006;12.100;2023-04-30T04:09:41;48828.31;;;-146.00;79.49
21102;BME280;10709;49.006;12.100;2023-04-30T04:12:08;48869.44;;;-146.00;79.20
21102;BME280;10709;49.006;12.100;2023-04-30T04:14:34;48847.91;;;-146.00;79.13
21102;BME280;10709;49.006;12.100;2023-04-30T04:17:01;48871.41;;;-146.00;79.45
21102;BME280;10709;49.006;12.100;2023-04-30T04:19:30;48879.25;;;-146.00;79.63
21102;BME280;10709;49.006;12.100;2023-04-30T04:21:57;48855.75;;;-146.00;79.53
21102;BME280;10709;49.006;12.100;2023-04-30T04:24:26;48840.06;;;-146.00;79.01
21102;BME280;10709;49.006;12.100;2023-04-30T04:26:53;48859.66;;;-146.00;78.77
21102;BME280;10709;49.006;12.100;2023-04-30T04:29:19;48863.56;;;-146.00;78.45
21102;BME280;10709;49.006;12.100;2023-04-30T04:31:47;48857.69;;;-146.00;78.36
21102;BME280;10709;49.006;12.100;2023-04-30T04:34:16;48863.56;;;-146.00;78.03
21102;BME280;10709;49.006;12.100;2023-04-30T04:36:42;48802.84;;;-146.00;77.75
21102;BME280;10709;49.006;12.100;2023-04-30T04:39:09;48828.31;;;-146.00;77.27
21102;BME280;10709;49.006;12.100;2023-04-30T04:41:36;48810.69;;;-146.00;77.66
21102;BME280;10709;49.006;12.100;2023-04-30T04:44:03;48859.66;;;-146.00;78.58
21102;BME280;10709;49.006;12.100;2023-04-30T04:46:30;48863.56;;;-146.00;79.19
21102;BME280;10709;49.006;12.100;2023-04-30T04:48:57;48859.66;;;-146.00;78.45
21102;BME280;10709;49.006;12.100;2023-04-30T04:51:24;48906.69;;;-146.00;79.50
21102;BME280;10709;49.006;12.100;2023-04-30T04:53:51;48855.75;;;-146.00;80.06
21102;BME280;10709;49.006;12.100;2023-04-30T04:56:18;48865.53;;;-146.00;80.26
21102;BME280;10709;49.006;12.100;2023-04-30T04:58:44;48863.56;;;-146.00;81.06
21102;BME280;10709;49.006;12.100;2023-04-30T05:01:11;48883.16;;;-146.00;81.51
21102;BME280;10709;49.006;12.100;2023-04-30T05:03:38;48871.41;;;-146.00;81.23
21102;BME280;10709;49.006;12.100;2023-04-30T05:06:05;48859.66;;;-146.00;80.77
21102;BME280;10709;49.006;12.100;2023-04-30T05:08:32;48892.97;;;-146.00;80.29
21102;BME280;10709;49.006;12.100;2023-04-30T05:10:58;48891.00;;;-146.00;79.91
21102;BME280;10709;49.006;12.100;2023-04-30T05:13:25;48887.09;;;-146.00;80.32
21102;BME280;10709;49.006;12.100;2023-04-30T05:15:52;48822.44;;;-146.00;79.21
21102;BME280;10709;49.006;12.100;2023-04-30T05:18:21;48853.78;;;-146.00;79.31
21102;BME280;10709;49.006;12.100;2023-04-30T05:20:47;48867.50;;;-146.00;79.47
21102;BME280;10709;49.006;12.100;2023-04-30T05:23:14;48867.50;;;-146.00;78.92
21102;BME280;10709;49.006;12.100;2023-04-30T05:25:41;48871.41;;;-146.00;78.36
21102;BME280;10709;49.006;12.100;2023-04-30T05:28:08;48857.69;;;-146.00;78.64
21102;BME280;10709;49.006;12.100;2023-04-30T05:30:34;48883.16;;;-146.00;78.87
21102;BME280;10709;49.006;12.100;2023-04-30T05:33:01;48847.91;;;-146.00;77.48
21102;BME280;10709;49.006;12.100;2023-04-30T05:35:29;48844.00;;;-146.00;77.25
21102;BME280;10709;49.006;12.100;2023-04-30T05:37:57;48836.16;;;-146.00;77.62
21102;BME280;10709;49.006;12.100;2023-04-30T05:40:24;48871.41;;;-146.00;77.90
21102;BME280;10709;49.006;12.100;2023-04-30T05:42:52;48842.03;;;-146.00;77.13
21102;BME280;10709;49.006;12.100;2023-04-30T05:45:19;48840.06;;;-146.00;76.11
21102;BME280;10709;49.006;12.100;2023-04-30T05:47:46;48816.56;;;-146.00;75.71
21102;BME280;10709;49.006;12.100;2023-04-30T05:50:13;48857.69;;;-146.00;76.00
21102;BME280;10709;49.006;12.100;2023-04-30T05:52:40;48824.41;;;-146.00;76.26
21102;BME280;10709;49.006;12.100;2023-04-30T05:55:08;48851.81;;;-146.00;75.46
21102;BME280;10709;49.006;12.100;2023-04-30T05:57:35;48812.63;;;-146.00;76.49
21102;BME280;10709;49.006;12.100;2023-04-30T06:00:02;48824.41;;;-146.00;76.20
21102;BME280;10709;49.006;12.100;2023-04-30T06:02:31;48796.97;;;-146.00;74.82
21102;BME280;10709;49.006;12.100;2023-04-30T06:04:58;48814.59;;;-146.00;75.17
21102;BME280;10709;49.006;12.100;2023-04-30T06:07:27;48828.31;;;-146.00;74.83
21102;BME280;10709;49.006;12.100;2023-04-30T06:09:55;48826.34;;;-146.00;74.03
21102;BME280;10709;49.006;12.100;2023-04-30T06:12:24;48832.22;;;-146.00;74.32
21102;BME280;10709;49.006;12.100;2023-04-30T06:14:51;48840.06;;;-146.00;74.66
21102;BME280;10709;49.006;12.100;2023-04-30T06:17:18;48836.16;;;-146.00;73.35
21102;BME280;10709;49.006;12.100;2023-04-30T06:19:45;48804.81;;;-146.00;73.16
21102;BME280;10709;49.006;12.100;2023-04-30T06:22:11;48793.06;;;-146.00;72.95
21102;BME280;10709;49.006;12.100;2023-04-30T06:24:38;48771.50;;;-146.00;72.32
21102;BME280;10709;49.006;12.100;2023-04-30T06:27:05;48793.06;;;-146.00;71.33
21102;BME280;10709;49.006;12.100;2023-04-30T06:29:31;48789.13;;;-146.00;71.10
21102;BME280;10709;49.006;12.100;2023-04-30T06:31:58;48798.94;;;-146.00;71.12
21102;BME280;10709;49.006;12.100;2023-04-30T06:34:25;48793.06;;;-146.00;69.78
21102;BME280;10709;49.006;12.100;2023-04-30T06:36:52;48783.25;;;-146.00;70.92
21102;BME280;10709;49.006;12.100;2023-04-30T06:39:19;48773.47;;;-146.00;70.04
21102;BME280;10709;49.006;12.100;2023-04-30T06:41:47;48787.19;;;-146.00;68.28
21102;BME280;10709;49.006;12.100;2023-04-30T06:44:14;48785.22;;;-146.00;68.15
21102;BME280;10709;49.006;12.100;2023-04-30T06:46:43;48765.63;;;-146.00;66.92
21102;BME280;10709;49.006;12.100;2023-04-30T06:49:10;48785.22;;;-146.00;67.35
21102;BME280;10709;49.006;12.100;2023-04-30T06:51:37;48824.41;;;-146.00;68.19
21102;BME280;10709;49.006;12.100;2023-04-30T06:54:05;48765.63;;;-146.00;67.04
21102;BME280;10709;49.006;12.100;2023-04-30T06:56:35;48804.81;;;-146.00;67.41
21102;BME280;10709;49.006;12.100;2023-04-30T06:59:02;48785.22;;;-146.00;67.40
21102;BME280;10709;49.006;12.100;2023-04-30T07:01:29;48781.31;;;-146.00;68.26
21102;BME280;10709;49.006;12.100;2023-04-30T07:03:56;48781.31;;;-146.00;66.62
21102;BME280;10709;49.006;12.100;2023-04-30T07:06:24;48785.22;;;-146.00;66.61
21102;BME280;10709;49.006;12.100;2023-04-30T07:08:51;48742.13;;;-146.00;65.85
21102;BME280;10709;49.006;12.100;2023-04-30T07:11:18;48765.63;;;-146.00;64.13
21102;BME280;10709;49.006;12.100;2023-04-30T07:13:45;48777.38;;;-146.00;64.40
21102;BME280;10709;49.006;12.100;2023-04-30T07:16:12;48779.34;;;-146.00;63.59
21102;BME280;10709;49.006;12.100;2023-04-30T07:18:40;48757.78;;;-146.00;62.78
21102;BME280;10709;49.006;12.100;2023-04-30T07:21:06;48765.63;;;-146.00;63.82
21102;BME280;10709;49.006;12.100;2023-04-30T07:23:33;48763.66;;;-146.00;63.98
21102;BME280;10709;49.006;12.100;2023-04-30T07:26:00;48761.72;;;-146.00;63.83
21102;BME280;10709;49.006;12.100;2023-04-30T07:28:28;48761.72;;;-146.00;63.12
21102;BME280;10709;49.006;12.100;2023-04-30T07:30:54;48771.50;;;-146.00;63.48
21102;BME280;10709;49.006;12.100;2023-04-30T07:33:21;48765.63;;;-146.00;63.28
21102;BME280;10709;49.006;12.100;2023-04-30T07:35:47;48765.63;;;-146.00;63.45
21102;BME280;10709;49.006;12.100;2023-04-30T07:38:15;48769.53;;;-146.00;62.50
21102;BME280;10709;49.006;12.100;2023-04-30T07:40:44;48746.03;;;-146.00;60.24
21102;BME280;10709;49.006;12.100;2023-04-30T07:43:10;48740.16;;;-146.00;60.32
21102;BME280;10709;49.006;12.100;2023-04-30T07:45:37;48746.03;;;-146.00;59.75
21102;BME280;10709;49.006;12.100;2023-04-30T07:48:04;48785.22;;;-146.00;60.29
21102;BME280;10709;49.006;12.100;2023-04-30T07:50:31;48769.53;;;-146.00;59.53
21102;BME280;10709;49.006;12.100;2023-04-30T07:53:03;48781.31;;;-146.00;59.48
21102;BME280;10709;49.006;12.100;2023-04-30T07:55:35;48757.78;;;-146.00;58.88
21102;BME280;10709;49.006;12.100;2023-04-30T07:58:03;48769.53;;;-146.00;59.30
21102;BME280;10709;49.006;12.100;2023-04-30T08:00:30;48795.00;;;-146.00;59.53
21102;BME280;10709;49.006;12.100;2023-04-30T08:02:58;48773.47;;;-146.00;59.68
21102;BME280;10709;49.006;12.100;2023-04-30T08:05:26;48753.88;;;-146.00;58.93
21102;BME280;10709;49.006;12.100;2023-04-30T08:07:53;48777.38;;;-146.00;59.67
21102;BME280;10709;49.006;12.100;2023-04-30T08:10:19;48757.78;;;-146.00;59.76
21102;BME280;10709;49.006;12.100;2023-04-30T08:12:46;48769.53;;;-146.00;59.04
21102;BME280;10709;49.006;12.100;2023-04-30T08:15:15;48765.63;;;-146.00;58.97
21102;BME280;10709;49.006;12.100;2023-04-30T08:17:42;48781.31;;;-146.00;59.66
21102;BME280;10709;49.006;12.100;2023-04-30T08:20:09;48757.78;;;-146.00;57.95
21102;BME280;10709;49.006;12.100;2023-04-30T08:22:36;48781.31;;;-146.00;57.54
21102;BME280;10709;49.006;12.100;2023-04-30T08:25:03;48785.22;;;-146.00;58.19
21102;BME280;10709;49.006;12.100;2023-04-30T08:27:30;48742.13;;;-146.00;58.04
21102;BME280;10709;49.006;12.100;2023-04-30T08:29:57;48777.38;;;-146.00;57.58
21102;BME280;10709;49.006;12.100;2023-04-30T08:32:26;48779.34;;;-146.00;57.95
21102;BME280;10709;49.006;12.100;2023-04-30T08:34:53;48757.78;;;-146.00;58.55
21102;BME280;10709;49.006;12.100;2023-04-30T08:37:20;48781.31;;;-146.00;58.75
21102;BME280;10709;49.006;12.100;2023-04-30T08:39:47;48765.63;;;-146.00;58.64
21102;BME280;10709;49.006;12.100;2023-04-30T08:42:15;48773.47;;;-146.00;58.68
21102;BME280;10709;49.006;12.100;2023-04-30T08:44:43;48781.31;;;-146.00;57.27
21102;BME280;10709;49.006;12.100;2023-04-30T08:47:12;48787.19;;;-146.00;58.24
21102;BME280;10709;49.006;12.100;2023-04-30T08:49:40;48734.28;;;-146.00;57.39
21102;BME280;10709;49.006;12.100;2023-04-30T08:52:06;48777.38;;;-146.00;57.06
21102;BME280;10709;49.006;12.100;2023-04-30T08:54:37;48773.47;;;-146.00;57.59
21102;BME280;10709;49.006;12.100;2023-04-30T08:57:04;48795.00;;;-146.00;57.27
21102;BME280;10709;49.006;12.100;2023-04-30T08:59:32;48767.59;;;-146.00;56.33
21102;BME280;10709;49.006;12.100;2023-04-30T09:01:59;48785.22;;;-146.00;56.52
21102;BME280;10709;49.006;12.100;2023-04-30T09:04:27;48738.19;;;-146.00;57.06
21102;BME280;10709;49.006;12.100;2023-04-30T09:06:54;48765.63;;;-146.00;57.41
21102;BME280;10709;49.006;12.100;2023-04-30T09:09:37;48757.78;;;-146.00;56.39
21102;BME280;10709;49.006;12.100;2023-04-30T09:14:41;48761.72;;;-146.00;56.41
21102;BME280;10709;49.006;12.100;2023-04-30T09:17:24;48783.25;;;-146.00;55.90
21102;BME280;10709;49.006;12.100;2023-04-30T09:19:51;48775.41;;;-146.00;56.59
21102;BME280;10709;49.006;12.100;2023-04-30T09:22:20;48765.63;;;-146.00;55.57
21102;BME280;10709;49.006;12.100;2023-04-30T09:24:48;48789.13;;;-146.00;55.95
21102;BME280;10709;49.006;12.100;2023-04-30T09:27:20;48787.19;;;-146.00;56.80
21102;BME280;10709;49.006;12.100;2023-04-30T09:29:47;48773.47;;;-146.00;56.48
21102;BME280;10709;49.006;12.100;2023-04-30T09:32:15;48779.34;;;-146.00;56.28
21102;BME280;10709;49.006;12.100;2023-04-30T09:34:42;48789.13;;;-146.00;54.45
21102;BME280;10709;49.006;12.100;2023-04-30T09:37:09;48769.53;;;-146.00;54.90
21102;BME280;10709;49.006;12.100;2023-04-30T09:39:50;48761.72;;;-146.00;53.44
21102;BME280;10709;49.006;12.100;2023-04-30T09:42:18;48789.13;;;-146.00;54.52
21102;BME280;10709;49.006;12.100;2023-04-30T09:44:46;48781.31;;;-146.00;54.45
21102;BME280;10709;49.006;12.100;2023-04-30T09:47:19;48789.13;;;-146.00;52.79
21102;BME280;10709;49.006;12.100;2023-04-30T09:49:48;48781.31;;;-146.00;53.23
21102;BME280;10709;49.006;12.100;2023-04-30T09:52:18;48753.88;;;-146.00;54.84
21102;BME280;10709;49.006;12.100;2023-04-30T09:54:48;48773.47;;;-146.00;54.54
21102;BME280;10709;49.006;12.100;2023-04-30T09:57:15;48753.88;;;-146.00;54.53
21102;BME280;10709;49.006;12.100;2023-04-30T09:59:44;48798.94;;;-146.00;54.06
21102;BME280;10709;49.006;12.100;2023-04-30T10:02:13;48753.88;;;-146.00;52.55
21102;BME280;10709;49.006;12.100;2023-04-30T10:04:43;48765.63;;;-146.00;52.04
21102;BME280;10709;49.006;12.100;2023-04-30T10:07:20;48814.59;;;-146.00;52.05
21102;BME280;10709;49.006;12.100;2023-04-30T10:09:50;48795.00;;;-146.00;51.62
21102;BME280;10709;49.006;12.100;2023-04-30T10:12:25;48755.84;;;-146.00;52.67
21102;BME280;10709;49.006;12.100;2023-04-30T10:14:56;48781.31;;;-146.00;50.31
21102;BME280;10709;49.006;12.100;2023-04-30T10:17:26;48742.13;;;-146.00;51.04
21102;BME280;10709;49.006;12.100;2023-04-30T10:19:58;48757.78;;;-146.00;51.71
21102;BME280;10709;49.006;12.100;2023-04-30T10:22:28;48769.53;;;-146.00;50.82
21102;BME280;10709;49.006;12.100;2023-04-30T10:24:55;48769.53;;;-146.00;50.56
21102;BME280;10709;49.006;12.100;2023-04-30T10:27:23;48789.13;;;-146.00;48.70
21102;BME280;10709;49.006;12.100;2023-04-30T10:29:51;48765.63;;;-146.00;46.75
21102;BME280;10709;49.006;12.100;2023-04-30T10:32:19;48753.88;;;-146.00;49.69
21102;BME280;10709;49.006;12.100;2023-04-30T10:34:55;48796.97;;;-146.00;50.99
21102;BME280;10709;49.006;12.100;2023-04-30T10:37:47;48777.38;;;-146.00;50.63
21102;BME280;10709;49.006;12.100;2023-04-30T10:40:18;48800.88;;;-146.00;48.43
21102;BME280;10709;49.006;12.100;2023-04-30T10:42:46;48777.38;;;-146.00;48.03
21102;BME280;10709;49.006;12.100;2023-04-30T10:45:14;48796.97;;;-146.00;48.83
21102;BME280;10709;49.006;12.100;2023-04-30T10:47:42;48773.47;;;-146.00;50.25
21102;BME280;10709;49.006;12.100;2023-04-30T10:50:11;48777.38;;;-146.00;51.46
21102;BME280;10709;49.006;12.100;2023-04-30T10:52:38;48761.72;;;-146.00;51.57
21102;BME280;10709;49.006;12.100;2023-04-30T10:55:06;48789.13;;;-146.00;51.61
21102;BME280;10709;49.006;12.100;2023-04-30T10:57:41;48769.53;;;-146.00;50.27
21102;BME280;10709;49.006;12.100;2023-04-30T11:02:40;48759.75;;;-146.00;49.89
21102;BME280;10709;49.006;12.100;2023-04-30T11:05:11;48765.63;;;-146.00;50.30
21102;BME280;10709;49.006;12.100;2023-04-30T11:07:56;48781.31;;;-146.00;50.28
21102;BME280;10709;49.006;12.100;2023-04-30T11:10:32;48757.78;;;-146.00;50.43
21102;BME280;10709;49.006;12.100;2023-04-30T11:13:03;48773.47;;;-146.00;50.26
21102;BME280;10709;49.006;12.100;2023-04-30T11:15:39;48767.59;;;-146.00;51.19
21102;BME280;10709;49.006;12.100;2023-04-30T11:18:08;48781.31;;;-146.00;51.35
21102;BME280;10709;49.006;12.100;2023-04-30T11:20:48;48808.72;;;-146.00;49.25
21102;BME280;10709;49.006;12.100;2023-04-30T11:23:20;48785.22;;;-146.00;49.61
21102;BME280;10709;49.006;12.100;2023-04-30T11:26:06;48734.28;;;-146.00;51.24
21102;BME280;10709;49.006;12.100;2023-04-30T11:28:33;48773.47;;;-146.00;49.60
21102;BME280;10709;49.006;12.100;2023-04-30T11:31:04;48783.25;;;-146.00;46.28
21102;BME280;10709;49.006;12.100;2023-04-30T11:33:32;48746.03;;;-146.00;47.29
21102;BME280;10709;49.006;12.100;2023-04-30T11:36:00;48787.19;;;-146.00;48.22
21102;BME280;10709;49.006;12.100;2023-04-30T11:38:28;48793.06;;;-146.00;48.42
21102;BME280;10709;49.006;12.100;2023-04-30T11:40:56;48765.63;;;-146.00;48.68
21102;BME280;10709;49.006;12.100;2023-04-30T11:43:30;48810.69;;;-146.00;49.15
21102;BME280;10709;49.006;12.100;2023-04-30T11:46:07;48781.31;;;-146.00;49.57
21102;BME280;10709;49.006;12.100;2023-04-30T11:48:37;48777.38;;;-146.00;48.33
21102;BME280;10709;49.006;12.100;2023-04-30T11:51:17;48787.19;;;-146.00;47.60
21102;BME280;10709;49.006;12.100;2023-04-30T11:53:48;48781.31;;;-146.00;46.77
21102;BME280;10709;49.006;12.100;2023-04-30T11:56:19;48777.38;;;-146.00;47.87
21102;BME280;10709;49.006;12.100;2023-04-30T11:58:48;48777.38;;;-146.00;47.85
21102;BME280;10709;49.006;12.100;2023-04-30T12:01:16;48759.75;;;-146.00;47.23
21102;BME280;10709;49.006;12.100;2023-04-30T12:03:48;48800.88;;;-146.00;47.41
21102;BME280;10709;49.006;12.100;2023-04-30T12:06:25;48781.31;;;-146.00;46.70
21102;BME280;10709;49.006;12.100;2023-04-30T12:08:57;48738.19;;;-146.00;45.17
21102;BME280;10709;49.006;12.100;2023-04-30T12:11:26;48765.63;;;-146.00;45.58
21102;BME280;10709;49.006;12.100;2023-04-30T12:14:04;48746.03;;;-146.00;46.41
21102;BME280;10709;49.006;12.100;2023-04-30T12:16:50;48753.88;;;-146.00;47.63
21102;BME280;10709;49.006;12.100;2023-04-30T12:19:19;48789.13;;;-146.00;47.47
21102;BME280;10709;49.006;12.100;2023-04-30T12:21:47;48765.63;;;-146.00;47.20
21102;BME280;10709;49.006;12.100;2023-04-30T12:24:15;48785.22;;;-146.00;46.85
21102;BME280;10709;49.006;12.100;2023-04-30T12:26:45;48765.63;;;-146.00;44.41
21102;BME280;10709;49.006;12.100;2023-04-30T12:29:15;48769.53;;;-146.00;44.37
21102;BME280;10709;49.006;12.100;2023-04-30T12:31:42;48773.47;;;-146.00;45.42
21102;BME280;10709;49.006;12.100;2023-04-30T12:34:11;48781.31;;;-146.00;45.78
21102;BME280;10709;49.006;12.100;2023-04-30T12:36:39;48761.72;;;-146.00;43.53
21102;BME280;10709;49.006;12.100;2023-04-30T12:39:12;48787.19;;;-146.00;45.35
21102;BME280;10709;49.006;12.100;2023-04-30T12:41:43;48802.84;;;-146.00;44.21
21102;BME280;10709;49.006;12.100;2023-04-30T12:44:23;48785.22;;;-146.00;43.84
21102;BME280;10709;49.006;12.100;2023-04-30T12:46:52;48785.22;;;-146.00;44.77
21102;BME280;10709;49.006;12.100;2023-04-30T12:49:33;48783.25;;;-146.00;43.98
21102;BME280;10709;49.006;12.100;2023-04-30T12:52:10;48812.63;;;-146.00;43.40